createdAt,value
2022-12-18T00:01:18.815Z,1.82
2022-12-18T00:03:46.150Z,1.88
2022-12-18T00:06:14.719Z,1.99
2022-12-18T00:08:42.166Z,1.87
2022-12-18T00:11:11.905Z,1.98
2022-12-18T00:13:38.708Z,1.83
2022-12-18T00:16:07.860Z,1.79
2022-12-18T00:18:37.284Z,1.88
2022-12-18T00:21:07.104Z,1.73
2022-12-18T00:23:35.748Z,1.65
2022-12-18T00:26:04.175Z,1.77
2022-12-18T00:28:30.775Z,1.80
2022-12-18T00:31:05.072Z,1.76
2022-12-18T00:33:31.624Z,1.83
2022-12-18T00:36:10.259Z,2.02
2022-12-18T00:38:37.074Z,1.92
2022-12-18T00:41:03.869Z,1.85
2022-12-18T00:43:30.522Z,1.84
2022-12-18T00:45:57.068Z,1.79
2022-12-18T00:48:23.613Z,1.71
2022-12-18T00:50:51.205Z,1.68
2022-12-18T00:53:17.880Z,1.71
2022-12-18T00:55:44.940Z,1.80
2022-12-18T00:58:13.504Z,1.77
2022-12-18T01:00:40.023Z,1.88
2022-12-18T01:03:07.008Z,1.66
2022-12-18T01:05:34.417Z,1.48
2022-12-18T01:08:01.039Z,1.70
2022-12-18T01:10:27.621Z,1.79
2022-12-18T01:12:54.128Z,1.63
2022-12-18T01:15:21.388Z,1.85
2022-12-18T01:17:47.940Z,1.46
2022-12-18T01:20:15.041Z,1.66
2022-12-18T01:22:41.897Z,1.39
2022-12-18T01:25:09.043Z,1.28
2022-12-18T01:27:35.611Z,1.47
2022-12-18T01:30:02.267Z,1.50
2022-12-18T01:32:31.558Z,1.54
2022-12-18T01:34:58.271Z,1.60
2022-12-18T01:37:25.385Z,1.80
2022-12-18T01:39:55.385Z,1.41
2022-12-18T01:42:22.949Z,1.49
2022-12-18T01:45:24.400Z,1.63
2022-12-18T01:47:53.344Z,1.52
2022-12-18T01:50:37.058Z,1.36
2022-12-18T01:53:20.079Z,1.28
2022-12-18T01:55:58.607Z,1.68
2022-12-18T01:58:37.302Z,1.47
2022-12-18T02:01:04.360Z,1.49
2022-12-18T02:03:30.954Z,1.54
2022-12-18T02:06:08.415Z,1.65
2022-12-18T02:08:44.969Z,1.74
2022-12-18T02:11:37.002Z,1.47
2022-12-18T02:14:21.687Z,1.44
2022-12-18T02:17:00.467Z,1.45
2022-12-18T02:19:58.791Z,1.49
2022-12-18T02:22:30.716Z,1.48
2022-12-18T02:25:18.699Z,1.67
2022-12-18T02:27:48.004Z,1.80
2022-12-18T02:30:16.160Z,1.66
2022-12-18T02:32:47.078Z,1.57
2022-12-18T02:35:18.045Z,1.64
2022-12-18T02:37:46.975Z,1.91
2022-12-18T02:40:15.797Z,1.82
2022-12-18T02:42:42.355Z,1.60
2022-12-18T02:45:09.291Z,1.48
2022-12-18T02:47:41.007Z,1.69
2022-12-18T02:50:38.935Z,1.52
2022-12-18T02:53:14.769Z,1.39
2022-12-18T02:55:55.672Z,1.48
2022-12-18T02:58:29.356Z,1.48
2022-12-18T03:01:16.064Z,1.48
2022-12-18T03:03:53.781Z,1.74
2022-12-18T03:06:43.259Z,1.61
2022-12-18T03:09:15.806Z,1.35
2022-12-18T03:12:05.586Z,1.16
2022-12-18T03:14:35.085Z,1.53
2022-12-18T03:17:04.139Z,1.56
2022-12-18T03:19:33.851Z,1.62
2022-12-18T03:22:04.941Z,1.45
2022-12-18T03:24:32.657Z,1.29
2022-12-18T03:27:03.858Z,1.21
2022-12-18T03:29:38.172Z,1.25
2022-12-18T03:32:16.144Z,1.43
2022-12-18T03:34:46.763Z,1.33
2022-12-18T03:37:13.340Z,1.41
2022-12-18T03:39:39.871Z,1.46
2022-12-18T03:42:16.040Z,1.55
2022-12-18T03:45:14.859Z,1.51
2022-12-18T03:47:48.535Z,1.55
2022-12-18T03:50:26.713Z,1.30
2022-12-18T03:53:01.158Z,1.34
2022-12-18T03:55:31.392Z,1.22
2022-12-18T03:57:59.658Z,1.30
2022-12-18T04:00:26.784Z,1.14
2022-12-18T04:02:56.558Z,1.25
2022-12-18T04:05:25.282Z,1.28
2022-12-18T04:07:54.913Z,1.45
2022-12-18T04:10:21.451Z,1.34
2022-12-18T04:12:48.046Z,1.35
2022-12-18T04:15:14.913Z,1.28
2022-12-18T04:17:50.854Z,1.45
2022-12-18T04:20:17.995Z,1.28
2022-12-18T04:22:44.611Z,1.43
2022-12-18T04:25:12.412Z,1.50
2022-12-18T04:27:38.965Z,1.53
2022-12-18T04:30:06.204Z,1.58
2022-12-18T04:32:34.682Z,1.43
2022-12-18T04:35:01.168Z,1.45
2022-12-18T04:37:27.720Z,1.28
2022-12-18T04:39:54.242Z,1.30
2022-12-18T04:42:20.734Z,1.32
2022-12-18T04:44:47.223Z,1.28
2022-12-18T04:47:13.726Z,1.42
2022-12-18T04:49:40.237Z,1.42
2022-12-18T04:52:08.000Z,1.54
2022-12-18T04:54:34.553Z,1.64
2022-12-18T04:57:01.328Z,1.50
2022-12-18T04:59:27.817Z,1.72
2022-12-18T05:01:54.406Z,1.55
2022-12-18T05:04:20.923Z,1.54
2022-12-18T05:06:47.375Z,1.39
2022-12-18T05:09:14.742Z,1.36
2022-12-18T05:11:41.370Z,1.38
2022-12-18T05:14:07.813Z,1.47
2022-12-18T05:16:34.897Z,1.60
2022-12-18T05:19:01.397Z,1.77
2022-12-18T05:21:27.900Z,1.68
2022-12-18T05:23:54.455Z,1.67
2022-12-18T05:26:21.001Z,1.65
2022-12-18T05:28:47.693Z,1.67
2022-12-18T05:31:14.830Z,1.58
2022-12-18T05:33:41.751Z,1.66
2022-12-18T05:36:10.309Z,1.65
2022-12-18T05:38:39.210Z,1.70
2022-12-18T05:41:06.562Z,1.48
2022-12-18T05:43:36.129Z,1.33
2022-12-18T05:46:07.586Z,1.40
2022-12-18T05:48:34.636Z,1.59
2022-12-18T05:51:09.363Z,1.61
2022-12-18T05:53:37.774Z,1.68
2022-12-18T05:56:06.811Z,1.56
2022-12-18T05:58:33.730Z,1.60
2022-12-18T06:01:11.306Z,1.58
2022-12-18T06:03:37.989Z,1.42
2022-12-18T06:06:05.137Z,1.24
2022-12-18T06:08:51.288Z,1.32
2022-12-18T06:11:21.146Z,1.34
2022-12-18T06:13:53.564Z,1.22
2022-12-18T06:16:24.320Z,1.31
2022-12-18T06:18:50.945Z,1.37
2022-12-18T06:21:17.476Z,1.38
2022-12-18T06:23:44.636Z,1.37
2022-12-18T06:26:13.147Z,1.01
2022-12-18T06:28:39.953Z,1.01
2022-12-18T06:31:07.758Z,1.23
2022-12-18T06:33:35.329Z,1.39
2022-12-18T06:36:08.463Z,1.25
2022-12-18T06:38:35.740Z,1.06
2022-12-18T06:41:06.774Z,1.24
2022-12-18T06:43:33.374Z,1.21
2022-12-18T06:46:01.225Z,0.94
2022-12-18T06:48:28.347Z,1.05
2022-12-18T06:50:54.818Z,1.03
2022-12-18T06:53:21.340Z,0.96
2022-12-18T06:55:47.895Z,1.02
2022-12-18T06:58:14.704Z,1.17
2022-12-18T07:00:41.553Z,1.14
2022-12-18T07:03:08.298Z,1.13
2022-12-18T07:05:35.081Z,0.93
2022-12-18T07:08:01.655Z,0.95
2022-12-18T07:10:28.259Z,1.03
2022-12-18T07:12:54.752Z,0.97
2022-12-18T07:15:21.329Z,1.12
2022-12-18T07:17:47.936Z,1.14
2022-12-18T07:20:14.460Z,1.11
2022-12-18T07:22:41.194Z,1.07
2022-12-18T07:25:08.480Z,0.96
2022-12-18T07:27:35.024Z,1.01
2022-12-18T07:30:01.568Z,1.13
2022-12-18T07:32:28.356Z,1.22
2022-12-18T07:34:54.847Z,1.22
2022-12-18T07:37:21.341Z,1.30
2022-12-18T07:39:47.812Z,1.40
2022-12-18T07:42:31.837Z,1.14
2022-12-18T07:45:02.228Z,1.26
2022-12-18T07:47:29.954Z,1.36
2022-12-18T07:49:57.437Z,1.34
2022-12-18T07:52:26.247Z,1.35
2022-12-18T07:54:52.975Z,1.32
2022-12-18T07:57:41.788Z,1.47
2022-12-18T08:00:06.781Z,1.52
2022-12-18T08:02:33.403Z,1.62
2022-12-18T08:05:01.210Z,1.30
2022-12-18T08:07:27.704Z,1.23
2022-12-18T08:09:54.207Z,1.25
2022-12-18T08:12:20.799Z,1.26
2022-12-18T08:14:47.462Z,1.42
2022-12-18T08:17:13.974Z,1.39
2022-12-18T08:19:40.546Z,1.35
2022-12-18T08:22:07.044Z,1.27
2022-12-18T08:24:33.559Z,1.45
2022-12-18T08:27:28.414Z,1.44
2022-12-18T08:29:46.621Z,1.51
2022-12-18T08:32:13.322Z,1.64
2022-12-18T08:34:39.899Z,1.50
2022-12-18T08:37:06.613Z,1.39
2022-12-18T08:39:33.182Z,1.56
2022-12-18T08:42:18.115Z,1.51
2022-12-18T08:44:44.599Z,1.37
2022-12-18T08:47:11.145Z,1.40
2022-12-18T08:49:37.726Z,1.59
2022-12-18T08:52:04.498Z,1.66
2022-12-18T08:54:31.112Z,1.73
2022-12-18T08:56:57.866Z,1.77
2022-12-18T08:59:24.592Z,1.67
2022-12-18T09:01:51.442Z,1.72
2022-12-18T09:04:18.476Z,1.84
2022-12-18T09:06:45.032Z,1.86
2022-12-18T09:09:12.196Z,1.92
2022-12-18T09:11:38.863Z,1.99
2022-12-18T09:14:05.642Z,2.06
2022-12-18T09:16:33.480Z,1.94
2022-12-18T09:19:01.218Z,2.06
2022-12-18T09:21:35.126Z,2.21
2022-12-18T09:24:05.174Z,2.38
2022-12-18T09:26:35.454Z,2.25
2022-12-18T09:29:03.906Z,2.13
2022-12-18T09:31:30.449Z,2.22
2022-12-18T09:33:57.788Z,2.27
2022-12-18T09:36:24.322Z,2.30
2022-12-18T09:38:51.247Z,2.38
2022-12-18T09:41:36.708Z,2.45
2022-12-18T09:44:21.051Z,2.47
2022-12-18T09:47:01.951Z,2.44
2022-12-18T09:49:32.022Z,2.61
2022-12-18T09:52:10.230Z,2.61
2022-12-18T09:54:41.685Z,2.60
2022-12-18T09:57:14.494Z,2.60
2022-12-18T09:59:43.475Z,2.62
2022-12-18T10:02:25.216Z,2.71
2022-12-18T10:05:16.761Z,2.72
2022-12-18T10:08:08.247Z,2.72
2022-12-18T10:10:49.706Z,2.77
2022-12-18T10:13:27.315Z,2.68
2022-12-18T10:16:17.563Z,2.82
2022-12-18T10:19:09.226Z,2.87
2022-12-18T10:22:00.145Z,2.96
2022-12-18T10:24:40.227Z,2.93
2022-12-18T10:27:18.991Z,3.00
2022-12-18T10:29:47.126Z,3.00
2022-12-18T10:32:19.957Z,3.02
2022-12-18T10:34:55.346Z,3.00
2022-12-18T10:37:28.754Z,3.19
2022-12-18T10:40:21.794Z,3.28
2022-12-18T10:43:03.792Z,3.36
2022-12-18T10:45:40.866Z,3.31
2022-12-18T10:48:20.477Z,3.36
2022-12-18T10:53:38.231Z,3.49
2022-12-18T10:56:07.362Z,3.45
2022-12-18T10:58:39.396Z,3.46
2022-12-18T11:01:25.588Z,3.56
2022-12-18T11:04:02.952Z,3.54
2022-12-18T11:06:33.399Z,3.56
2022-12-18T11:09:29.107Z,3.67
2022-12-18T11:11:58.112Z,3.68
2022-12-18T11:14:27.323Z,3.77
2022-12-18T11:17:24.923Z,3.79
2022-12-18T11:19:42.893Z,3.85
2022-12-18T11:22:27.588Z,3.85
2022-12-18T11:25:34.583Z,3.90
2022-12-18T11:28:06.611Z,3.94
2022-12-18T11:30:38.078Z,3.94
2022-12-18T11:33:13.330Z,3.98
2022-12-18T11:36:36.349Z,4.03
2022-12-18T11:39:13.286Z,4.05
2022-12-18T11:42:20.257Z,4.09
2022-12-18T11:45:19.029Z,4.10
2022-12-18T11:48:16.237Z,4.11
2022-12-18T11:50:59.913Z,4.20
2022-12-18T11:53:28.336Z,4.19
2022-12-18T11:56:04.882Z,4.15
2022-12-18T11:58:47.171Z,4.21
2022-12-18T12:01:23.034Z,4.18
2022-12-18T12:04:10.777Z,4.19
2022-12-18T12:07:04.249Z,4.13
2022-12-18T12:09:53.727Z,4.22
2022-12-18T12:13:00.546Z,4.32
2022-12-18T12:16:02.768Z,4.33
2022-12-18T12:18:47.401Z,4.40
2022-12-18T12:21:19.525Z,4.41
2022-12-18T12:24:37.665Z,4.45
2022-12-18T12:27:26.706Z,4.36
2022-12-18T12:30:06.317Z,4.33
2022-12-18T12:32:47.863Z,4.50
2022-12-18T12:35:30.646Z,4.55
2022-12-18T12:38:10.331Z,4.56
2022-12-18T12:40:52.396Z,4.54
2022-12-18T12:43:33.405Z,4.60
2022-12-18T12:46:11.992Z,4.68
2022-12-18T12:48:59.810Z,4.66
2022-12-18T12:51:30.945Z,4.68
2022-12-18T12:54:13.855Z,4.63
2022-12-18T12:57:17.829Z,4.68
2022-12-18T13:00:04.331Z,4.68
2022-12-18T13:03:05.688Z,4.74
2022-12-18T13:06:01.297Z,4.79
2022-12-18T13:08:40.862Z,4.80
2022-12-18T13:11:59.759Z,4.82
2022-12-18T13:14:47.350Z,4.87
2022-12-18T13:17:37.490Z,4.88
2022-12-18T13:20:09.698Z,4.84
2022-12-18T13:22:45.274Z,4.84
2022-12-18T13:25:35.758Z,4.91
2022-12-18T13:28:08.643Z,4.96
2022-12-18T13:30:36.234Z,4.95
2022-12-18T13:33:15.270Z,5.00
2022-12-18T13:36:03.189Z,4.94
2022-12-18T13:38:35.290Z,4.98
2022-12-18T13:44:35.970Z,5.01
2022-12-18T13:47:50.457Z,4.99
2022-12-18T13:53:34.077Z,4.87
2022-12-18T13:56:08.075Z,4.90
2022-12-18T13:58:35.355Z,4.83
2022-12-18T14:01:04.172Z,4.86
2022-12-18T14:03:51.481Z,4.90
2022-12-18T14:06:49.896Z,4.92
2022-12-18T14:10:41.283Z,4.93
2022-12-18T14:15:43.913Z,4.82
2022-12-18T14:18:52.577Z,4.80
2022-12-18T14:24:32.489Z,4.77
2022-12-18T14:27:32.375Z,4.73
2022-12-18T14:30:26.690Z,4.79
2022-12-18T14:49:39.975Z,4.57
2022-12-18T14:53:24.620Z,4.55
2022-12-18T14:59:42.227Z,4.41
2022-12-18T15:02:49.873Z,4.41
2022-12-18T15:15:22.131Z,3.91
2022-12-18T15:18:03.371Z,4.02
2022-12-18T15:23:45.423Z,3.80
2022-12-18T15:35:23.337Z,3.63
2022-12-18T15:38:00.003Z,3.62
2022-12-18T15:41:29.574Z,3.38
2022-12-18T15:43:35.026Z,3.26
2022-12-18T15:46:29.474Z,3.23
2022-12-18T15:52:13.085Z,3.18
2022-12-18T15:55:07.214Z,3.13
2022-12-18T15:57:59.316Z,3.04
2022-12-18T16:00:28.596Z,2.88
2022-12-18T16:03:28.204Z,2.79
2022-12-18T16:06:07.812Z,2.66
2022-12-18T16:09:12.927Z,2.69
2022-12-18T16:11:48.453Z,2.64
2022-12-18T16:14:35.700Z,2.61
2022-12-18T16:20:02.227Z,2.56
2022-12-18T16:22:31.857Z,2.58
2022-12-18T16:25:03.444Z,2.56
2022-12-18T16:27:30.080Z,2.57
2022-12-18T16:29:57.963Z,2.58
2022-12-18T16:32:25.643Z,2.43
2022-12-18T16:34:52.613Z,2.39
2022-12-18T16:37:31.240Z,2.43
2022-12-18T16:40:00.879Z,2.52
2022-12-18T16:42:39.991Z,2.48
2022-12-18T16:45:27.651Z,2.50
2022-12-18T16:47:54.352Z,2.39
2022-12-18T16:50:25.584Z,2.43
2022-12-18T16:52:52.587Z,2.36
2022-12-18T16:55:20.916Z,2.21
2022-12-18T16:57:51.135Z,2.26
2022-12-18T17:00:18.305Z,2.27
2022-12-18T17:02:45.025Z,2.24
2022-12-18T17:05:14.400Z,2.31
2022-12-18T17:07:41.119Z,2.34
2022-12-18T17:10:07.961Z,2.41
2022-12-18T17:12:37.193Z,2.51
2022-12-18T17:15:10.377Z,2.26
2022-12-18T17:17:37.019Z,2.18
2022-12-18T17:20:03.823Z,2.09
2022-12-18T17:22:30.366Z,2.17
2022-12-18T17:24:56.941Z,2.28
2022-12-18T17:27:23.527Z,2.15
2022-12-18T17:29:50.166Z,2.10
2022-12-18T17:32:20.217Z,2.06
2022-12-18T17:34:47.204Z,2.08
2022-12-18T17:37:14.527Z,2.09
2022-12-18T17:39:42.268Z,2.07
2022-12-18T17:42:10.652Z,1.95
2022-12-18T17:44:42.542Z,1.98
2022-12-18T17:47:12.081Z,1.86
2022-12-18T17:49:38.900Z,1.84
2022-12-18T17:52:05.472Z,1.85
2022-12-18T17:54:33.083Z,1.83
2022-12-18T17:56:59.747Z,1.86
2022-12-18T17:59:26.388Z,1.94
2022-12-18T18:01:53.133Z,2.00
2022-12-18T18:04:20.480Z,1.92
2022-12-18T18:06:47.200Z,1.88
2022-12-18T18:09:16.067Z,2.02
2022-12-18T18:12:02.875Z,1.73
2022-12-18T18:14:29.696Z,1.67
2022-12-18T18:16:56.191Z,1.58
2022-12-18T18:19:25.288Z,1.58
2022-12-18T18:21:53.987Z,1.72
2022-12-18T18:24:26.051Z,1.70
2022-12-18T18:26:59.418Z,1.78
2022-12-18T18:29:27.067Z,1.54
2022-12-18T18:31:54.500Z,1.68
2022-12-18T18:34:24.374Z,1.35
2022-12-18T18:36:51.420Z,1.45
2022-12-18T18:39:18.755Z,1.61
2022-12-18T18:41:47.877Z,1.60
2022-12-18T18:44:15.918Z,1.55
2022-12-18T18:46:42.369Z,1.66
2022-12-18T18:49:09.642Z,1.70
2022-12-18T18:51:36.071Z,1.67
2022-12-18T18:54:02.632Z,1.71
2022-12-18T18:59:16.375Z,1.74
2022-12-18T19:01:43.419Z,1.81
2022-12-18T19:04:10.228Z,1.79
2022-12-18T19:06:39.069Z,1.70
2022-12-18T19:09:06.633Z,1.60
2022-12-18T19:11:51.844Z,1.63
2022-12-18T19:14:25.172Z,1.74
2022-12-18T19:16:55.092Z,1.81
2022-12-18T19:19:22.288Z,1.47
2022-12-18T19:21:49.949Z,1.41
2022-12-18T19:24:16.365Z,1.41
2022-12-18T19:26:42.915Z,1.36
2022-12-18T19:29:12.098Z,1.39
2022-12-18T19:31:38.842Z,1.45
2022-12-18T19:34:07.050Z,1.51
2022-12-18T19:36:35.741Z,1.56
2022-12-18T19:39:07.259Z,1.31
2022-12-18T19:41:33.897Z,1.46
2022-12-18T19:44:07.635Z,1.42
2022-12-18T19:46:35.836Z,1.13
2022-12-18T19:49:02.914Z,0.99
2022-12-18T19:51:34.993Z,1.02
2022-12-18T19:54:02.247Z,1.17
2022-12-18T19:56:31.989Z,1.25
2022-12-18T19:58:58.813Z,1.35
2022-12-18T20:01:27.105Z,1.36
2022-12-18T20:03:55.522Z,1.44
2022-12-18T20:06:28.396Z,1.56
2022-12-18T20:09:07.615Z,1.43
2022-12-18T20:11:41.469Z,1.21
2022-12-18T20:14:23.943Z,1.13
2022-12-18T20:20:46.050Z,0.94
2022-12-18T20:21:14.413Z,1.07
2022-12-18T20:24:18.369Z,1.08
2022-12-18T20:31:44.528Z,1.31
2022-12-18T20:34:38.375Z,1.35
2022-12-18T21:07:32.771Z,1.49
2022-12-18T21:10:08.264Z,1.28
2022-12-18T21:26:31.736Z,1.67
2022-12-18T21:39:19.935Z,1.50
2022-12-18T21:42:07.746Z,1.73
2022-12-18T21:57:04.139Z,1.67
2022-12-18T22:08:04.015Z,1.42
2022-12-18T22:14:07.190Z,1.71
2022-12-18T22:18:00.080Z,1.60
2022-12-18T22:23:12.578Z,1.79
2022-12-18T22:29:12.034Z,1.80
2022-12-18T22:32:01.044Z,1.42
2022-12-18T22:40:40.629Z,1.26
2022-12-18T22:43:49.820Z,1.36
2022-12-18T22:46:43.863Z,1.58
2022-12-18T22:49:10.983Z,1.39
2022-12-18T22:52:00.479Z,1.48
2022-12-18T22:54:54.864Z,1.42
2022-12-18T23:00:28.287Z,1.59
2022-12-18T23:03:13.931Z,1.71
2022-12-18T23:07:44.605Z,1.61
2022-12-18T23:09:29.577Z,1.58
2022-12-18T23:11:58.761Z,1.50
2022-12-18T23:15:28.640Z,1.66
2022-12-18T23:17:25.759Z,1.80
2022-12-18T23:20:19.345Z,1.86
2022-12-18T23:22:39.705Z,1.78
2022-12-18T23:25:16.153Z,1.66
2022-12-18T23:27:42.876Z,1.77
2022-12-18T23:30:12.942Z,1.59
2022-12-18T23:32:53.003Z,1.51
2022-12-18T23:35:31.518Z,1.56
2022-12-18T23:37:58.813Z,1.46
2022-12-18T23:40:26.550Z,1.52
2022-12-18T23:42:53.083Z,1.76
2022-12-18T23:45:42.324Z,1.70
2022-12-18T23:48:23.436Z,1.57
2022-12-18T23:50:50.138Z,1.60
2022-12-18T23:53:16.772Z,1.73
2022-12-18T23:55:44.590Z,1.66
2022-12-18T23:58:21.134Z,1.73
